KNPA/NPA METAR and TAF weather

Enter ICAO airport designator
Station Type Date Time Source
KNPA METAR 2019/08/24 22:56 UTC NOAA

KNPA 242256Z AUTO 21009KT 10SM CLR 30/25 A2993 RMK AO2 SLP138 T03000250


Station Type Date Time Source
KNPA Decoded METAR 2019/08/24 22:56 UTC NOAA

Station name not available
Aug 24, 2019 - 06:56 PM EDT / 2019.08.24 2256 UTC
Wind: from the SSW (210 degrees) at 10 MPH (9 KT):0
Visibility: 10 mile(s):0
Sky conditions: clear
Temperature: 86.0 F (30.0 C)
Heat index: 96.8 F (36.0 C):1
Dew Point: 77.0 F (25.0 C)
Relative Humidity: 74%
Pressure (altimeter): 29.93 in. Hg (1013 hPa)
ob: KNPA 242256Z AUTO 21009KT 10SM CLR 30/25 A2993 RMK AO2 SLP138 T03000250
cycle: 23

Station Type Date Time Source
KNPA TAF 2019/08/24 15:06 UTC NOAA

TAF KNPA 2415/2515 VRB06KT SCT020 SCT150 BKN250 QNH2999INS
TEMPO 2415/2418 BKN015 BKN150
BECMG 2417/2418 VRB05KT 9999 VCTS SCT015 SCT030CB SCT060 BKN150 BKN250 QNH2994INS
TEMPO 2418/2423 VRB15G25KT 6000 TSRA BKN012 BKN025CB BKN050
BECMG 2500/2501 VRB05KT 9999 NSW FEW030 SCT140 BK250 QNH2994INS
BECMG 2511/2512 VRB06KT 9999 FEW030 SCT150 BKN280 QNH2996INS T25/2411Z T31/2419Z FN00213

Example: see airport list